»·PEaware :: UAL576 KABQ-KASE

UAL576 :: KABQ-KASE

FLIGHT INFORMATION

Flight Status: Arrived
Operator:
United Airlines
More flights by this operator :: More flights under this callsign
Pilot: Anonymous 8274 (8274)
Aircraft: BOEING 737-200
(B732)
More flights by this aircraft type
Origin: KABQ Albuquerque Intl Sunport
United States
Destination: KASE Aspen-Pitkin Co/Sardy
United States
More flights between these airports :: More routes between these airports
Route: +LARGO3 RSK MTJ V361 DBL
File this flight plan on PilotEdge
Remarks:
Altitude:
(Current/Filed)
29,000ft
Speed:
(Current/Filed)
460kts
Departed: 04-Jan-18 02:39 PM
Arrived: 04-Jan-18 03:37 PM
Distance/Time
Traveled:
251nm/0:58
Distance/Time
To Go:
Arrived

Flight Plot

Page will automatically refresh every two minutes.

Flight plan parsing failed; only flown route is shown


Map Options




Map Legend


Flown Route
Filed Route
Departure Airport
Arrival Airport
Navaid (VOR, NDB)
Fix

Horizontal Profiles

Position Reports

Time Latitude Longitude Heading Altitude Ground
Speed
04-Jan-18 13:50 35.047770 -106.615702 180 5317ft 0kts
04-Jan-18 13:51 35.047770 -106.615702 180 5317ft 0kts
04-Jan-18 13:52 35.047770 -106.615702 180 5317ft 0kts
04-Jan-18 13:53 35.047770 -106.615702 180 5317ft 0kts
04-Jan-18 13:54 35.047770 -106.615702 180 5317ft 0kts
04-Jan-18 13:55 35.047770 -106.615702 180 5317ft 0kts
04-Jan-18 13:56 35.047770 -106.615702 180 5317ft 0kts
04-Jan-18 13:57 35.047770 -106.615702 180 5317ft 0kts
04-Jan-18 13:58 35.047770 -106.615702 180 5317ft 0kts
04-Jan-18 13:59 35.047770 -106.615702 180 5317ft 0kts
04-Jan-18 14:00 35.047770 -106.615702 180 5317ft 0kts
04-Jan-18 14:01 35.047770 -106.615702 180 5317ft 0kts
04-Jan-18 14:02 35.047770 -106.615702 180 5317ft 0kts
04-Jan-18 14:03 35.047770 -106.615702 180 5317ft 0kts
04-Jan-18 14:04 35.047770 -106.615702 180 5317ft 0kts
04-Jan-18 14:05 35.047770 -106.615702 180 5317ft 0kts
04-Jan-18 14:06 35.047770 -106.615702 180 5317ft 0kts
04-Jan-18 14:07 35.047770 -106.615702 180 5317ft 0kts
04-Jan-18 14:08 35.047770 -106.615702 180 5317ft 0kts
04-Jan-18 14:09 35.047770 -106.615702 180 5317ft 0kts
04-Jan-18 14:10 35.047770 -106.615702 180 5317ft 0kts
04-Jan-18 14:11 35.047770 -106.615702 180 5317ft 0kts
04-Jan-18 14:12 35.047770 -106.615702 180 5317ft 0kts
04-Jan-18 14:13 35.047770 -106.615702 180 5317ft 0kts
04-Jan-18 14:14 35.047770 -106.615702 180 5317ft 0kts
04-Jan-18 14:15 35.047770 -106.615702 180 5317ft 0kts
04-Jan-18 14:16 35.047770 -106.615702 180 5317ft 0kts
04-Jan-18 14:17 35.047770 -106.615702 180 5317ft 0kts
04-Jan-18 14:18 35.047770 -106.615702 180 5317ft 0kts
04-Jan-18 14:19 35.047770 -106.615702 180 5317ft 0kts
04-Jan-18 14:20 35.047770 -106.615702 180 5317ft 0kts
04-Jan-18 14:21 35.047770 -106.615702 180 5317ft 0kts
04-Jan-18 14:22 35.047770 -106.615702 180 5317ft 0kts
04-Jan-18 14:23 35.047770 -106.615702 180 5317ft 0kts
04-Jan-18 14:24 35.047770 -106.615702 180 5317ft 0kts
04-Jan-18 14:25 35.047770 -106.615702 180 5317ft 0kts
04-Jan-18 14:26 35.047770 -106.615702 180 5317ft 0kts
04-Jan-18 14:27 35.047770 -106.615702 180 5317ft 0kts
04-Jan-18 14:28 35.047770 -106.615702 180 5317ft 0kts
04-Jan-18 14:29 35.047770 -106.615702 180 5317ft 0kts
04-Jan-18 14:30 35.047770 -106.615702 180 5317ft 0kts
04-Jan-18 14:31 35.047926 -106.615701 180 5317ft 2kts
04-Jan-18 14:32 35.048292 -106.616104 83 5317ft 0kts
04-Jan-18 14:33 35.048292 -106.616103 83 5317ft 0kts
04-Jan-18 14:34 35.048292 -106.616103 83 5317ft 0kts
04-Jan-18 14:35 35.048292 -106.616103 83 5317ft 0kts
04-Jan-18 14:36 35.048327 -106.615874 78 5317ft 5kts
04-Jan-18 14:37 35.048353 -106.614322 91 5317ft 4kts
04-Jan-18 14:38 35.048343 -106.613863 91 5317ft 0kts
04-Jan-18 14:39 35.046504 -106.613130 185 5317ft 15kts
04-Jan-18 14:40 35.045552 -106.617354 270 5317ft 14kts
04-Jan-18 14:41 35.045258 -106.621372 194 5317ft 0kts
04-Jan-18 14:42 35.045258 -106.621372 194 5317ft 0kts
04-Jan-18 14:43 35.045258 -106.621372 194 5317ft 0kts
04-Jan-18 14:44 35.045000 -106.621393 180 5317ft 6kts
04-Jan-18 14:45 35.044337 -106.619734 90 5317ft 43kts
04-Jan-18 14:46 35.043932 -106.577556 92 5965ft 158kts
04-Jan-18 14:47 35.067161 -106.542929 340 7243ft 190kts
04-Jan-18 14:48 35.114754 -106.588178 318 8939ft 240kts
04-Jan-18 14:49 35.170816 -106.649326 318 10485ft 299kts
04-Jan-18 14:50 35.237369 -106.722791 318 12385ft 334kts
04-Jan-18 14:51 35.307964 -106.800236 318 14557ft 348kts
04-Jan-18 14:52 35.382469 -106.876047 343 17086ft 335kts
04-Jan-18 14:53 35.476448 -106.886044 357 18763ft 348kts
04-Jan-18 14:54 35.573901 -106.889782 354 20322ft 356kts
04-Jan-18 14:55 35.672681 -106.902798 347 21701ft 362kts
04-Jan-18 14:56 35.766382 -106.921385 347 22854ft 369kts
04-Jan-18 14:57 35.868163 -106.940780 347 23956ft 376kts
04-Jan-18 14:58 35.966007 -106.958748 347 24910ft 381kts
04-Jan-18 14:59 36.040073 -107.039676 299 25790ft 373kts
04-Jan-18 15:00 36.099161 -107.145765 307 26626ft 378kts
04-Jan-18 15:01 36.165209 -107.245405 308 27389ft 382kts
04-Jan-18 15:02 36.233993 -107.345797 308 28070ft 385kts
04-Jan-18 15:03 36.304734 -107.443286 311 28240ft 400kts
04-Jan-18 15:04 36.381445 -107.546677 311 28237ft 415kts
04-Jan-18 15:05 36.459260 -107.651859 309 28240ft 424kts
04-Jan-18 15:06 36.533452 -107.763809 307 28238ft 422kts
04-Jan-18 15:07 36.607589 -107.876260 307 28237ft 420kts
04-Jan-18 15:08 36.676116 -107.992201 305 28235ft 415kts
04-Jan-18 15:09 36.743974 -108.107770 305 28234ft 411kts
04-Jan-18 15:10 36.840580 -108.170080 358 28256ft 428kts
04-Jan-18 15:11 36.958570 -108.148946 5 28233ft 432kts
04-Jan-18 15:12 37.074914 -108.119962 5 28231ft 429kts
04-Jan-18 15:13 37.180937 -108.057238 21 27383ft 429kts
04-Jan-18 15:14 37.288456 -108.027383 357 25327ft 390kts
04-Jan-18 15:15 37.393734 -108.017523 4 24238ft 378kts
04-Jan-18 15:16 37.496838 -107.993239 8 24274ft 385kts
04-Jan-18 15:17 37.601915 -107.964563 8 24238ft 390kts
04-Jan-18 15:18 37.708024 -107.938916 2 24293ft 390kts
04-Jan-18 15:19 37.813492 -107.925269 2 24291ft 393kts
04-Jan-18 15:20 37.922358 -107.917012 359 24290ft 394kts
04-Jan-18 15:21 38.031578 -107.910814 359 24288ft 395kts
04-Jan-18 15:22 38.137509 -107.915531 353 24294ft 394kts
04-Jan-18 15:23 38.241553 -107.917831 0 24293ft 397kts
04-Jan-18 15:24 38.351409 -107.909175 0 24292ft 395kts
04-Jan-18 15:25 38.460317 -107.900624 0 24291ft 394kts
04-Jan-18 15:26 38.564353 -107.868145 31 24307ft 401kts
04-Jan-18 15:27 38.660390 -107.803040 19 24267ft 390kts
04-Jan-18 15:28 38.754453 -107.738209 44 23544ft 392kts
04-Jan-18 15:29 38.826861 -107.637333 39 21326ft 381kts
04-Jan-18 15:30 38.901723 -107.545114 40 19143ft 374kts
04-Jan-18 15:31 38.981454 -107.462843 37 17144ft 364kts
04-Jan-18 15:32 39.051478 -107.386325 42 17042ft 298kts
04-Jan-18 15:33 39.100034 -107.323453 45 16950ft 247kts
04-Jan-18 15:34 39.125943 -107.250493 78 16096ft 257kts
04-Jan-18 15:35 39.139481 -107.161031 78 15459ft 246kts
04-Jan-18 15:36 39.155194 -107.080567 71 15475ft 223kts
04-Jan-18 15:37 39.174194 -107.004425 71 15040ft 214kts
04-Jan-18 15:38 39.192564 -106.930770 69 13222ft 215kts
04-Jan-18 15:39 39.214672 -106.861883 59 11049ft 203kts
04-Jan-18 15:40 39.261403 -106.862407 339 9006ft 174kts
04-Jan-18 15:41 39.251271 -106.882127 162 8099ft 154kts
04-Jan-18 15:42 39.218332 -106.866572 158 7782ft 45kts
04-Jan-18 15:43 39.217968 -106.865180 340 7782ft 5kts
04-Jan-18 15:44 39.220397 -106.865608 158 7782ft 6kts

Navigation Log

Ident Type
Flight plan parsing failed, navigation log unavailable